Time;durP1;ratioP1;P1;durP2;ratioP2;P2;SDS_P1;SDS_P2;PMS_P1;PMS_P2;Temp;Humidity;BMP_temperature;BMP_pressure;BME280_temperature;BME280_humidity;BME280_pressure;Samples;Min_cycle;Max_cycle;Signal;HPM_P1;HPM_P2
2023/12/31 00:01:52;;;;;;;46.92;28.38;;;;;;;;;;5053902;28;20467;-73
2023/12/31 00:04:18;;;;;;;36.83;23.35;;;;;;;;;;5054548;28;20017;-73
2023/12/31 00:06:43;;;;;;;40.25;24.67;;;;;;;;;;5054278;28;20482;-73
2023/12/31 00:09:09;;;;;;;37.08;24.98;;;;;;;;;;5054377;28;20116;-73
2023/12/31 00:11:34;;;;;;;38.75;23.33;;;;;;;;;;5053882;28;20017;-73
2023/12/31 00:13:59;;;;;;;32.80;21.25;;;;;;;;;;5054022;28;20029;-73
2023/12/31 00:16:25;;;;;;;32.35;19.35;;;;;;;;;;5054082;28;20040;-73
2023/12/31 00:18:50;;;;;;;30.88;19.50;;;;;;;;;;5054313;28;20051;-73
2023/12/31 00:21:16;;;;;;;29.73;18.83;;;;;;;;;;5036003;28;20043;-73
2023/12/31 00:23:42;;;;;;;32.03;19.42;;;;;;;;;;5053901;28;20024;-73
2023/12/31 00:26:07;;;;;;;44.97;26.80;;;;;;;;;;5053623;28;20383;-72
2023/12/31 00:28:34;;;;;;;47.10;27.30;;;;;;;;;;5019484;28;20021;-71
2023/12/31 00:31:00;;;;;;;44.58;27.67;;;;;;;;;;5053931;28;20029;-72
2023/12/31 00:33:25;;;;;;;44.63;26.40;;;;;;;;;;5036165;28;20364;-71
2023/12/31 00:35:52;;;;;;;32.08;21.38;;;;;;;;;;5035680;28;20033;-71
2023/12/31 00:38:18;;;;;;;36.00;23.55;;;;;;;;;;5035689;28;20524;-73
2023/12/31 00:40:43;;;;;;;72.50;33.63;;;;;;;;;;5053763;28;20025;-74
2023/12/31 00:43:09;;;;;;;64.97;30.27;;;;;;;;;;5035703;28;20029;-74
2023/12/31 00:45:34;;;;;;;35.30;21.60;;;;;;;;;;5035957;28;20124;-72
2023/12/31 00:48:00;;;;;;;28.00;19.05;;;;;;;;;;5039264;28;20530;-73
2023/12/31 00:50:25;;;;;;;34.53;21.17;;;;;;;;;;5057882;28;20025;-72
2023/12/31 00:52:53;;;;;;;34.90;21.40;;;;;;;;;;5039723;28;20426;-78
2023/12/31 00:55:18;;;;;;;31.20;20.33;;;;;;;;;;5023033;28;20101;-73
2023/12/31 00:57:44;;;;;;;27.73;17.35;;;;;;;;;;5057375;28;20383;-73
2023/12/31 01:00:10;;;;;;;27.23;17.75;;;;;;;;;;5057369;28;20124;-72
2023/12/31 01:02:35;;;;;;;28.52;19.20;;;;;;;;;;5039448;28;20116;-73
2023/12/31 01:05:01;;;;;;;23.63;16.65;;;;;;;;;;5022854;28;20053;-73
2023/12/31 01:07:27;;;;;;;25.73;16.08;;;;;;;;;;5057058;28;20040;-73
2023/12/31 01:09:53;;;;;;;21.65;16.00;;;;;;;;;;5040296;28;20029;-73
2023/12/31 01:12:18;;;;;;;23.10;15.57;;;;;;;;;;5057366;28;20363;-73
2023/12/31 01:14:44;;;;;;;23.52;16.60;;;;;;;;;;5057054;28;20024;-73
2023/12/31 01:17:10;;;;;;;24.60;16.25;;;;;;;;;;5056235;28;20041;-73
2023/12/31 01:19:36;;;;;;;26.98;17.98;;;;;;;;;;5039928;28;20029;-73
2023/12/31 01:22:01;;;;;;;23.77;16.30;;;;;;;;;;5056930;28;20029;-74
2023/12/31 01:24:27;;;;;;;25.90;15.52;;;;;;;;;;5057472;28;20509;-73
2023/12/31 01:26:52;;;;;;;21.60;15.32;;;;;;;;;;5038888;28;20024;-73
2023/12/31 01:29:18;;;;;;;23.55;15.32;;;;;;;;;;5057387;28;20060;-72
2023/12/31 01:31:43;;;;;;;23.10;15.63;;;;;;;;;;5057048;28;20019;-73
2023/12/31 01:34:08;;;;;;;22.13;14.90;;;;;;;;;;5022403;28;20051;-73
2023/12/31 01:36:34;;;;;;;22.83;14.70;;;;;;;;;;5039017;28;20029;-73
2023/12/31 01:38:59;;;;;;;22.98;16.05;;;;;;;;;;5055461;23;20045;-73
2023/12/31 01:41:25;;;;;;;27.63;16.85;;;;;;;;;;5038639;28;20025;-73
2023/12/31 01:43:59;;;;;;;23.52;15.68;;;;;;;;;;5039113;28;20025;-72
2023/12/31 01:46:28;;;;;;;23.52;15.18;;;;;;;;;;5057003;28;20060;-72
2023/12/31 01:48:55;;;;;;;27.67;16.35;;;;;;;;;;5076728;22;20528;-71
2023/12/31 01:55:04;;;;;;;27.00;15.98;;;;;;;;;;5059109;23;20061;-73
2023/12/31 01:57:30;;;;;;;27.23;16.48;;;;;;;;;;5075818;28;20421;-70
2023/12/31 01:59:56;;;;;;;25.33;15.73;;;;;;;;;;5076100;28;20390;-71
2023/12/31 02:02:21;;;;;;;24.67;15.43;;;;;;;;;;5058195;28;20107;-71
2023/12/31 02:04:47;;;;;;;25.15;16.48;;;;;;;;;;5058655;28;20032;-71
2023/12/31 02:07:14;;;;;;;26.45;16.80;;;;;;;;;;5058315;28;20033;-71
2023/12/31 02:09:39;;;;;;;24.88;15.77;;;;;;;;;;5058549;28;20039;-71
2023/12/31 02:12:05;;;;;;;38.22;22.08;;;;;;;;;;5076247;28;20025;-71
2023/12/31 02:14:31;;;;;;;56.83;34.38;;;;;;;;;;5058689;28;20079;-71
2023/12/31 02:17:06;;;;;;;31.67;19.55;;;;;;;;;;5082098;22;20075;-71
2023/12/31 02:19:31;;;;;;;20.92;15.18;;;;;;;;;;5066277;22;20061;-71
2023/12/31 02:22:03;;;;;;;23.95;16.05;;;;;;;;;;5101750;22;20498;-71
2023/12/31 02:24:31;;;;;;;23.70;15.70;;;;;;;;;;5055609;28;20097;-73
2023/12/31 02:26:58;;;;;;;23.40;14.55;;;;;;;;;;5058412;28;20036;-73
2023/12/31 02:29:25;;;;;;;24.35;16.20;;;;;;;;;;5075663;28;20382;-73
2023/12/31 02:31:50;;;;;;;22.50;13.35;;;;;;;;;;5075894;28;20031;-72
2023/12/31 02:34:16;;;;;;;22.90;13.45;;;;;;;;;;5075887;28;20025;-73
2023/12/31 02:36:41;;;;;;;23.35;15.10;;;;;;;;;;5057318;28;20028;-73
2023/12/31 02:39:07;;;;;;;27.38;16.05;;;;;;;;;;5075819;28;20032;-73
2023/12/31 02:41:34;;;;;;;25.75;15.88;;;;;;;;;;5076188;28;20059;-72
2023/12/31 02:44:00;;;;;;;23.45;14.23;;;;;;;;;;5057571;28;20470;-73
2023/12/31 02:46:25;;;;;;;25.90;16.63;;;;;;;;;;5057772;28;20123;-72
2023/12/31 02:48:51;;;;;;;29.40;17.15;;;;;;;;;;5057958;28;20467;-73
2023/12/31 02:51:16;;;;;;;23.00;14.90;;;;;;;;;;5057608;28;20032;-73
2023/12/31 02:53:42;;;;;;;27.13;16.65;;;;;;;;;;5075511;28;20028;-73
2023/12/31 02:56:07;;;;;;;27.08;17.25;;;;;;;;;;5057225;28;20036;-73
2023/12/31 02:58:33;;;;;;;27.45;19.45;;;;;;;;;;5057354;28;20154;-73
2023/12/31 03:00:59;;;;;;;33.67;20.50;;;;;;;;;;5057080;28;20471;-73
2023/12/31 03:03:24;;;;;;;33.70;21.55;;;;;;;;;;5057628;28;20035;-73
2023/12/31 03:05:50;;;;;;;34.63;22.15;;;;;;;;;;5075004;28;20033;-73
2023/12/31 03:08:16;;;;;;;28.02;18.05;;;;;;;;;;5057376;28;20039;-73
2023/12/31 03:10:41;;;;;;;22.83;14.30;;;;;;;;;;5075058;28;20027;-73
2023/12/31 03:13:06;;;;;;;23.15;15.98;;;;;;;;;;5074826;28;20112;-74
2023/12/31 03:15:32;;;;;;;18.35;10.98;;;;;;;;;;5075135;28;20386;-74
2023/12/31 03:18:01;;;;;;;14.73;9.88;;;;;;;;;;5075037;28;20029;-73
2023/12/31 03:20:26;;;;;;;18.55;11.75;;;;;;;;;;5056900;28;20433;-74
2023/12/31 03:22:51;;;;;;;18.40;11.05;;;;;;;;;;5056839;28;20513;-74
2023/12/31 03:25:17;;;;;;;17.63;11.82;;;;;;;;;;5056657;28;20389;-74
2023/12/31 03:27:45;;;;;;;16.40;11.85;;;;;;;;;;5074516;28;20040;-72
2023/12/31 03:30:11;;;;;;;17.95;11.95;;;;;;;;;;5074938;28;20028;-72
2023/12/31 03:32:36;;;;;;;17.88;11.15;;;;;;;;;;5056575;28;20024;-73
2023/12/31 03:35:02;;;;;;;18.25;11.60;;;;;;;;;;5074654;28;20039;-72
2023/12/31 03:37:27;;;;;;;17.13;10.60;;;;;;;;;;5056463;28;20025;-72
2023/12/31 03:39:54;;;;;;;15.05;10.40;;;;;;;;;;5074244;28;20073;-72
2023/12/31 03:42:19;;;;;;;17.73;10.77;;;;;;;;;;5056426;28;20017;-72
2023/12/31 03:44:45;;;;;;;18.70;11.43;;;;;;;;;;5040673;28;20043;-72
2023/12/31 03:47:10;;;;;;;16.75;11.15;;;;;;;;;;5056280;28;20478;-72
2023/12/31 03:49:36;;;;;;;17.92;11.43;;;;;;;;;;5074723;28;20031;-71
2023/12/31 03:52:01;;;;;;;19.10;12.27;;;;;;;;;;5074278;28;20046;-71
2023/12/31 03:54:27;;;;;;;17.75;12.35;;;;;;;;;;5056635;28;20029;-71
2023/12/31 03:56:52;;;;;;;17.13;11.40;;;;;;;;;;5074151;28;20047;-71
2023/12/31 03:59:24;;;;;;;20.50;12.43;;;;;;;;;;5062148;22;20024;-72
2023/12/31 04:01:56;;;;;;;16.73;12.40;;;;;;;;;;5044778;23;20061;-71
2023/12/31 04:04:22;;;;;;;18.85;13.02;;;;;;;;;;5034095;28;20096;-71
2023/12/31 04:06:48;;;;;;;29.77;20.40;;;;;;;;;;5034230;28;20128;-71
2023/12/31 04:12:51;;;;;;;34.53;23.60;;;;;;;;;;5095922;22;20051;-71
2023/12/31 04:15:16;;;;;;;58.80;34.35;;;;;;;;;;5073656;28;20023;-70
2023/12/31 04:17:42;;;;;;;49.60;29.27;;;;;;;;;;5073896;28;20028;-69
2023/12/31 04:20:09;;;;;;;33.15;19.05;;;;;;;;;;5054990;28;20032;-69
2023/12/31 04:22:34;;;;;;;24.95;15.93;;;;;;;;;;5038173;28;20039;-71
2023/12/31 04:25:01;;;;;;;29.13;18.35;;;;;;;;;;5054207;28;20119;-71
2023/12/31 04:27:27;;;;;;;28.67;17.95;;;;;;;;;;5074114;28;20071;-71
2023/12/31 04:29:52;;;;;;;25.23;16.48;;;;;;;;;;5074250;28;20070;-73
2023/12/31 04:32:18;;;;;;;23.05;15.55;;;;;;;;;;5074396;28;20056;-73
2023/12/31 04:34:43;;;;;;;22.17;14.95;;;;;;;;;;5074167;28;20036;-73
2023/12/31 04:37:08;;;;;;;50.83;28.80;;;;;;;;;;5055547;28;20142;-73
2023/12/31 04:39:34;;;;;;;58.83;31.50;;;;;;;;;;5073801;28;20036;-74
2023/12/31 04:42:00;;;;;;;45.08;26.02;;;;;;;;;;5055503;28;20024;-73
2023/12/31 04:44:25;;;;;;;39.63;24.23;;;;;;;;;;5074144;28;20031;-74
2023/12/31 04:46:50;;;;;;;33.75;22.35;;;;;;;;;;5073770;28;20032;-72
2023/12/31 04:49:16;;;;;;;46.38;26.75;;;;;;;;;;5073708;28;20029;-73
2023/12/31 04:51:42;;;;;;;62.67;26.10;;;;;;;;;;5056361;28;20047;-72
2023/12/31 04:54:07;;;;;;;64.63;27.05;;;;;;;;;;5073673;28;20378;-72
2023/12/31 04:56:33;;;;;;;58.92;23.65;;;;;;;;;;5055405;28;20029;-72
2023/12/31 04:58:58;;;;;;;44.00;21.50;;;;;;;;;;5073899;28;20031;-73
2023/12/31 05:01:26;;;;;;;50.10;27.60;;;;;;;;;;5055386;28;20029;-73
2023/12/31 05:03:51;;;;;;;29.05;17.63;;;;;;;;;;5073608;28;20032;-73
2023/12/31 05:06:17;;;;;;;23.50;14.27;;;;;;;;;;5073563;28;20430;-73
2023/12/31 05:08:43;;;;;;;17.13;11.55;;;;;;;;;;5073567;28;20083;-74
2023/12/31 05:11:12;;;;;;;19.95;12.38;;;;;;;;;;5039236;28;20078;-73
2023/12/31 05:13:38;;;;;;;19.73;13.10;;;;;;;;;;5055402;28;20055;-72
2023/12/31 05:16:04;;;;;;;19.50;12.23;;;;;;;;;;5073277;28;20082;-72
2023/12/31 05:18:30;;;;;;;21.50;12.57;;;;;;;;;;5055189;28;20055;-72
2023/12/31 05:20:55;;;;;;;57.72;41.00;;;;;;;;;;5073723;28;20455;-73
2023/12/31 05:23:21;;;;;;;47.08;30.25;;;;;;;;;;5073377;28;20036;-73
2023/12/31 05:25:46;;;;;;;41.53;24.95;;;;;;;;;;5073602;28;20028;-73
2023/12/31 05:28:11;;;;;;;41.45;23.42;;;;;;;;;;5038900;28;20373;-73
2023/12/31 05:30:41;;;;;;;24.05;16.80;;;;;;;;;;5073207;28;20043;-73
2023/12/31 05:33:07;;;;;;;46.65;28.10;;;;;;;;;;5057077;28;20029;-73
2023/12/31 05:35:32;;;;;;;34.20;20.48;;;;;;;;;;5077401;28;20070;-73
2023/12/31 05:37:58;;;;;;;59.83;31.52;;;;;;;;;;5077243;28;20532;-72
2023/12/31 05:40:23;;;;;;;70.53;35.15;;;;;;;;;;5058625;28;20020;-72
2023/12/31 05:42:49;;;;;;;76.78;30.95;;;;;;;;;;5076580;28;20478;-72
2023/12/31 05:45:14;;;;;;;59.33;25.55;;;;;;;;;;5076758;28;20497;-72
2023/12/31 05:47:40;;;;;;;47.78;20.23;;;;;;;;;;5058926;28;20028;-72
2023/12/31 05:50:05;;;;;;;38.55;17.85;;;;;;;;;;5076645;28;20029;-72
2023/12/31 05:52:31;;;;;;;34.50;16.55;;;;;;;;;;5058507;28;20078;-73
2023/12/31 05:54:56;;;;;;;29.27;14.73;;;;;;;;;;5058773;28;20024;-72
2023/12/31 05:57:23;;;;;;;35.30;15.55;;;;;;;;;;5076583;28;20523;-72
2023/12/31 05:59:49;;;;;;;34.42;15.35;;;;;;;;;;5076527;28;20036;-73
2023/12/31 06:02:14;;;;;;;26.58;14.05;;;;;;;;;;5076530;28;20052;-71
2023/12/31 06:04:40;;;;;;;24.70;14.15;;;;;;;;;;5076375;28;20517;-71
2023/12/31 06:07:05;;;;;;;41.13;16.83;;;;;;;;;;5076361;28;20024;-71
2023/12/31 06:09:30;;;;;;;34.60;16.85;;;;;;;;;;5076287;28;20115;-71
2023/12/31 06:11:56;;;;;;;42.50;19.25;;;;;;;;;;5076573;28;20032;-71
2023/12/31 06:14:21;;;;;;;36.97;20.23;;;;;;;;;;5041277;28;20056;-72
2023/12/31 06:16:47;;;;;;;38.58;20.13;;;;;;;;;;5076215;28;20036;-72
2023/12/31 06:19:12;;;;;;;32.92;18.80;;;;;;;;;;5075918;28;20044;-72
2023/12/31 06:21:37;;;;;;;35.20;19.88;;;;;;;;;;5103784;22;20072;-72
2023/12/31 06:24:15;;;;;;;33.15;18.88;;;;;;;;;;5089737;22;20068;-73
2023/12/31 06:26:41;;;;;;;32.35;19.38;;;;;;;;;;5058111;28;20381;-73
2023/12/31 06:29:08;;;;;;;40.92;17.58;;;;;;;;;;5057846;28;20037;-73
2023/12/31 06:34:34;;;;;;;39.50;16.38;;;;;;;;;;5076838;22;20045;-72
2023/12/31 06:37:00;;;;;;;55.95;22.02;;;;;;;;;;5076107;28;20035;-72
2023/12/31 06:39:25;;;;;;;72.07;31.10;;;;;;;;;;5057863;28;20032;-72
2023/12/31 06:41:51;;;;;;;38.42;20.10;;;;;;;;;;5075482;28;20064;-72
2023/12/31 06:44:16;;;;;;;31.23;16.52;;;;;;;;;;5075020;28;20067;-72
2023/12/31 06:46:42;;;;;;;27.50;15.70;;;;;;;;;;5058141;28;20051;-72
2023/12/31 06:49:07;;;;;;;28.15;14.85;;;;;;;;;;5075653;28;20069;-71
2023/12/31 06:51:33;;;;;;;30.80;17.13;;;;;;;;;;5075291;28;20108;-71
2023/12/31 06:53:58;;;;;;;39.88;17.80;;;;;;;;;;5057277;28;20060;-71
2023/12/31 06:56:23;;;;;;;47.92;21.98;;;;;;;;;;5075230;28;20118;-71
2023/12/31 06:58:49;;;;;;;50.58;23.23;;;;;;;;;;5075400;28;20063;-72
2023/12/31 07:01:14;;;;;;;45.05;23.70;;;;;;;;;;5058020;28;20114;-72
2023/12/31 07:03:40;;;;;;;42.63;25.02;;;;;;;;;;5075443;28;20036;-72
2023/12/31 07:06:22;;;;;;;33.83;23.17;;;;;;;;;;5105291;22;20158;-72
2023/12/31 07:08:48;;;;;;;34.08;21.02;;;;;;;;;;5073649;22;20079;-71
2023/12/31 07:11:15;;;;;;;28.90;18.27;;;;;;;;;;5061310;22;20130;-72
2023/12/31 07:13:40;;;;;;;35.15;18.05;;;;;;;;;;5055275;28;20462;-72
2023/12/31 07:16:05;;;;;;;35.67;18.05;;;;;;;;;;5055583;28;20253;-70
2023/12/31 07:18:32;;;;;;;36.65;20.75;;;;;;;;;;5055108;28;20039;-73
2023/12/31 07:21:03;;;;;;;35.70;21.00;;;;;;;;;;5054825;28;20041;-72
2023/12/31 07:23:28;;;;;;;42.80;22.10;;;;;;;;;;5055033;28;20029;-71
2023/12/31 07:25:55;;;;;;;47.85;25.23;;;;;;;;;;5037627;28;20029;-75
2023/12/31 07:28:20;;;;;;;64.15;33.28;;;;;;;;;;5056078;28;20029;-75
2023/12/31 07:30:46;;;;;;;70.38;36.72;;;;;;;;;;5055508;28;20028;-75
2023/12/31 07:33:11;;;;;;;62.72;35.55;;;;;;;;;;5054889;28;20033;-72
2023/12/31 07:35:37;;;;;;;68.65;34.97;;;;;;;;;;5054363;28;20485;-73
2023/12/31 07:38:08;;;;;;;61.25;31.60;;;;;;;;;;5036576;28;20044;-73
2023/12/31 07:40:34;;;;;;;64.30;31.40;;;;;;;;;;5054701;28;20033;-73
2023/12/31 07:43:00;;;;;;;60.33;32.72;;;;;;;;;;5054233;28;20029;-72
2023/12/31 07:45:26;;;;;;;51.05;28.10;;;;;;;;;;5053958;28;20133;-67
2023/12/31 07:47:53;;;;;;;51.28;27.52;;;;;;;;;;5036545;28;20471;-67
2023/12/31 07:50:19;;;;;;;37.78;22.63;;;;;;;;;;5036002;28;20126;-67
2023/12/31 07:52:44;;;;;;;32.85;18.60;;;;;;;;;;5042566;28;20022;-67
2023/12/31 07:55:10;;;;;;;32.72;18.00;;;;;;;;;;5050675;28;20408;-67
2023/12/31 07:57:37;;;;;;;23.70;14.73;;;;;;;;;;5069731;28;20605;-68
2023/12/31 08:00:04;;;;;;;22.48;14.18;;;;;;;;;;5073961;28;20112;-67
2023/12/31 08:02:37;;;;;;;21.02;13.90;;;;;;;;;;5073974;28;20068;-67
2023/12/31 08:05:03;;;;;;;25.55;14.60;;;;;;;;;;5073931;28;20121;-67
2023/12/31 08:07:29;;;;;;;24.27;14.00;;;;;;;;;;5039382;28;20068;-67
2023/12/31 08:09:55;;;;;;;43.35;23.92;;;;;;;;;;5073834;28;20478;-67
2023/12/31 08:12:20;;;;;;;137.90;93.75;;;;;;;;;;5073256;28;20086;-67
2023/12/31 08:14:45;;;;;;;125.78;89.63;;;;;;;;;;5073431;28;20040;-67
2023/12/31 08:17:11;;;;;;;52.58;35.95;;;;;;;;;;5073204;28;20028;-67
2023/12/31 08:19:37;;;;;;;35.15;23.52;;;;;;;;;;5055715;28;20039;-67
2023/12/31 08:22:03;;;;;;;41.78;25.17;;;;;;;;;;5056064;28;20111;-67
2023/12/31 08:24:28;;;;;;;52.10;34.58;;;;;;;;;;5055599;28;20032;-68
2023/12/31 08:26:54;;;;;;;56.13;37.22;;;;;;;;;;5055658;28;20035;-67
2023/12/31 08:29:19;;;;;;;56.22;36.42;;;;;;;;;;5055165;28;20021;-68
2023/12/31 08:31:52;;;;;;;43.05;28.23;;;;;;;;;;5073539;28;20382;-68
2023/12/31 08:34:18;;;;;;;41.35;24.02;;;;;;;;;;5074151;28;20052;-68
2023/12/31 08:36:44;;;;;;;28.83;16.08;;;;;;;;;;5073508;28;20509;-68
2023/12/31 08:39:10;;;;;;;34.78;22.92;;;;;;;;;;5055437;28;20036;-62
2023/12/31 08:41:35;;;;;;;30.05;17.48;;;;;;;;;;5074137;28;20055;-70
2023/12/31 08:44:00;;;;;;;33.17;19.60;;;;;;;;;;5073445;28;20470;-71
2023/12/31 08:46:26;;;;;;;22.92;15.27;;;;;;;;;;5073992;28;20032;-72
2023/12/31 08:48:51;;;;;;;20.98;13.52;;;;;;;;;;5056054;28;20020;-72
2023/12/31 08:51:16;;;;;;;21.02;13.95;;;;;;;;;;5073455;28;20036;-72
2023/12/31 08:53:42;;;;;;;18.70;12.90;;;;;;;;;;5073713;28;20047;-72
2023/12/31 08:56:08;;;;;;;19.80;11.88;;;;;;;;;;5073545;28;20056;-71
2023/12/31 08:58:33;;;;;;;16.67;12.00;;;;;;;;;;5071960;28;20027;-71
2023/12/31 09:00:58;;;;;;;40.55;24.40;;;;;;;;;;5071410;28;20020;-69
2023/12/31 09:03:24;;;;;;;79.25;44.92;;;;;;;;;;5071359;28;20046;-69
2023/12/31 09:05:49;;;;;;;75.72;45.72;;;;;;;;;;5071283;28;20040;-69
2023/12/31 09:08:15;;;;;;;74.35;42.92;;;;;;;;;;5055733;28;20124;-69
2023/12/31 09:10:41;;;;;;;66.80;37.60;;;;;;;;;;5075217;28;20068;-69
2023/12/31 09:13:06;;;;;;;24.42;16.65;;;;;;;;;;5075770;28;20055;-69
2023/12/31 09:15:32;;;;;;;68.43;38.83;;;;;;;;;;5075834;28;20056;-69
2023/12/31 09:17:57;;;;;;;53.35;31.75;;;;;;;;;;5076862;28;20071;-70
2023/12/31 09:20:22;;;;;;;52.15;31.23;;;;;;;;;;5077141;28;20031;-74
2023/12/31 09:22:52;;;;;;;46.22;25.55;;;;;;;;;;5076682;28;20112;-71
2023/12/31 09:25:18;;;;;;;38.05;22.27;;;;;;;;;;5076619;28;20036;-70
2023/12/31 09:27:43;;;;;;;31.98;17.90;;;;;;;;;;5076346;28;20028;-70
2023/12/31 09:30:09;;;;;;;43.95;24.45;;;;;;;;;;5076546;28;20119;-70
2023/12/31 09:32:34;;;;;;;25.23;16.10;;;;;;;;;;5076579;28;20149;-70
2023/12/31 09:35:01;;;;;;;23.90;16.50;;;;;;;;;;5076658;28;20496;-70
2023/12/31 09:37:26;;;;;;;24.63;16.95;;;;;;;;;;5076582;28;20038;-70
2023/12/31 09:39:52;;;;;;;26.63;17.90;;;;;;;;;;5042106;28;20115;-70
2023/12/31 09:42:28;;;;;;;28.38;17.05;;;;;;;;;;5076172;28;20055;-75
2023/12/31 09:44:54;;;;;;;26.80;17.70;;;;;;;;;;5076830;28;20424;-69
2023/12/31 09:47:19;;;;;;;27.50;17.88;;;;;;;;;;5065955;28;20025;-69
2023/12/31 09:49:44;;;;;;;34.08;21.30;;;;;;;;;;5056558;28;20029;-70
2023/12/31 09:52:10;;;;;;;23.40;15.02;;;;;;;;;;5038323;28;20021;-69
2023/12/31 09:54:40;;;;;;;19.67;13.52;;;;;;;;;;5056686;28;20024;-69
2023/12/31 09:57:06;;;;;;;22.70;13.77;;;;;;;;;;5032703;28;20044;-69
2023/12/31 09:59:31;;;;;;;26.38;17.15;;;;;;;;;;5036683;28;20030;-70
2023/12/31 10:02:03;;;;;;;24.73;13.38;;;;;;;;;;5036510;28;20446;-69
2023/12/31 10:04:29;;;;;;;20.95;12.32;;;;;;;;;;5036486;28;20113;-70
2023/12/31 10:06:55;;;;;;;33.55;21.10;;;;;;;;;;5027045;28;20037;-71
2023/12/31 10:09:23;;;;;;;36.28;21.20;;;;;;;;;;5033600;28;20558;-71
2023/12/31 10:11:49;;;;;;;41.25;22.55;;;;;;;;;;5046806;28;20043;-70
2023/12/31 10:14:15;;;;;;;43.33;26.67;;;;;;;;;;5035534;28;20056;-71
2023/12/31 10:16:43;;;;;;;37.15;20.00;;;;;;;;;;5035293;28;20053;-71
2023/12/31 10:19:09;;;;;;;33.55;19.73;;;;;;;;;;5052033;28;20037;-70
2023/12/31 10:21:34;;;;;;;20.30;12.20;;;;;;;;;;5053789;28;20064;-70
2023/12/31 10:24:01;;;;;;;20.45;12.10;;;;;;;;;;5053224;28;20076;-70
2023/12/31 10:26:27;;;;;;;21.45;13.05;;;;;;;;;;5035028;28;20136;-71
2023/12/31 10:28:52;;;;;;;22.27;13.70;;;;;;;;;;5053225;28;20104;-70
2023/12/31 10:31:17;;;;;;;23.45;15.27;;;;;;;;;;5052899;28;20013;-70
2023/12/31 10:33:43;;;;;;;25.42;14.65;;;;;;;;;;5052466;28;20509;-70
2023/12/31 10:36:09;;;;;;;29.80;16.52;;;;;;;;;;5051541;28;20489;-71
2023/12/31 10:38:44;;;;;;;32.83;19.20;;;;;;;;;;5033436;28;20057;-71
2023/12/31 10:41:10;;;;;;;33.40;21.70;;;;;;;;;;5051579;28;20078;-71
2023/12/31 10:43:38;;;;;;;171.20;71.22;;;;;;;;;;5051758;28;20029;-71
2023/12/31 10:46:04;;;;;;;307.25;113.97;;;;;;;;;;5051780;28;20025;-71
2023/12/31 10:48:30;;;;;;;225.27;82.13;;;;;;;;;;5034166;28;20062;-71
2023/12/31 10:50:56;;;;;;;365.30;121.85;;;;;;;;;;5051870;28;20040;-70
2023/12/31 10:53:21;;;;;;;303.42;99.78;;;;;;;;;;5051964;28;20021;-70
2023/12/31 10:55:47;;;;;;;124.25;42.20;;;;;;;;;;5051190;28;20029;-71
2023/12/31 10:58:13;;;;;;;21.50;10.18;;;;;;;;;;5051546;28;20086;-70
2023/12/31 11:00:39;;;;;;;22.05;10.52;;;;;;;;;;5033710;28;20712;-70
2023/12/31 11:03:07;;;;;;;39.22;20.40;;;;;;;;;;5051591;28;20112;-70
2023/12/31 11:05:33;;;;;;;55.17;30.35;;;;;;;;;;5051221;28;20075;-70
2023/12/31 11:08:00;;;;;;;32.03;20.20;;;;;;;;;;5051362;28;20041;-70
2023/12/31 11:10:25;;;;;;;34.45;20.88;;;;;;;;;;5034508;28;20024;-70
2023/12/31 11:12:51;;;;;;;23.67;13.23;;;;;;;;;;5052128;28;20413;-65
2023/12/31 11:15:18;;;;;;;22.95;12.40;;;;;;;;;;5051855;28;20551;-65
2023/12/31 11:17:52;;;;;;;19.25;10.60;;;;;;;;;;5034743;28;20085;-65
2023/12/31 11:20:30;;;;;;;11.20;7.18;;;;;;;;;;5052543;28;20033;-65
2023/12/31 11:23:15;;;;;;;32.13;18.83;;;;;;;;;;5034535;28;20041;-65
2023/12/31 11:25:44;;;;;;;50.88;27.27;;;;;;;;;;5033711;28;20024;-65
2023/12/31 11:28:09;;;;;;;17.35;11.27;;;;;;;;;;5034423;28;20048;-66
2023/12/31 11:30:47;;;;;;;10.90;7.18;;;;;;;;;;5052848;28;20355;-66
2023/12/31 11:33:24;;;;;;;13.07;7.25;;;;;;;;;;5034238;28;20025;-66
2023/12/31 11:35:51;;;;;;;8.90;6.55;;;;;;;;;;5052149;28;20063;-68
2023/12/31 11:38:16;;;;;;;10.93;6.60;;;;;;;;;;5034389;28;20020;-65
2023/12/31 11:40:42;;;;;;;18.05;9.52;;;;;;;;;;5034264;28;20028;-65
2023/12/31 11:43:14;;;;;;;24.20;13.30;;;;;;;;;;5036637;28;20115;-64
2023/12/31 11:45:45;;;;;;;22.30;12.82;;;;;;;;;;5043804;28;20025;-59
2023/12/31 11:48:20;;;;;;;17.33;10.90;;;;;;;;;;5042719;28;20040;-60
2023/12/31 11:50:52;;;;;;;15.82;9.73;;;;;;;;;;5062890;28;20024;-61
2023/12/31 11:53:20;;;;;;;14.23;9.32;;;;;;;;;;5062651;28;20075;-61
2023/12/31 11:55:49;;;;;;;17.30;10.52;;;;;;;;;;5064802;28;20024;-72
2023/12/31 11:58:14;;;;;;;15.05;10.90;;;;;;;;;;5042641;28;20029;-63
2023/12/31 12:00:40;;;;;;;15.20;10.20;;;;;;;;;;5061537;28;20025;-59
2023/12/31 12:03:05;;;;;;;14.88;9.88;;;;;;;;;;5046371;28;20032;-63
2023/12/31 12:05:31;;;;;;;16.23;10.02;;;;;;;;;;5063202;28;20115;-78
2023/12/31 12:07:59;;;;;;;18.63;10.38;;;;;;;;;;5060778;28;20039;-76
2023/12/31 12:10:25;;;;;;;20.58;11.73;;;;;;;;;;5039315;28;20021;-70
2023/12/31 12:12:56;;;;;;;19.38;12.45;;;;;;;;;;5062617;28;20032;-71
2023/12/31 12:15:21;;;;;;;12.55;9.07;;;;;;;;;;5068825;28;20509;-71
2023/12/31 12:17:47;;;;;;;17.08;10.82;;;;;;;;;;5050843;28;20072;-74
2023/12/31 12:20:13;;;;;;;26.80;15.57;;;;;;;;;;5032112;28;20033;-73
2023/12/31 12:22:39;;;;;;;23.55;13.18;;;;;;;;;;5033381;28;20037;-74
2023/12/31 12:25:04;;;;;;;19.30;12.40;;;;;;;;;;5054982;28;20035;-61
2023/12/31 12:27:30;;;;;;;13.13;9.75;;;;;;;;;;5071033;28;20047;-72
2023/12/31 12:29:56;;;;;;;13.07;9.65;;;;;;;;;;5071144;28;20025;-73
2023/12/31 12:32:24;;;;;;;17.33;11.55;;;;;;;;;;5070881;28;20509;-73
2023/12/31 12:34:50;;;;;;;52.53;26.55;;;;;;;;;;5070706;28;20035;-73
2023/12/31 12:37:15;;;;;;;81.18;33.25;;;;;;;;;;5052969;28;20127;-64
2023/12/31 12:39:41;;;;;;;36.53;17.05;;;;;;;;;;5071186;28;20149;-64
2023/12/31 12:42:06;;;;;;;27.65;18.45;;;;;;;;;;5070652;28;20031;-62
2023/12/31 12:44:33;;;;;;;44.47;26.33;;;;;;;;;;5071144;28;20541;-64
2023/12/31 12:47:01;;;;;;;52.03;25.63;;;;;;;;;;5052819;28;20039;-65
2023/12/31 12:49:26;;;;;;;53.90;28.17;;;;;;;;;;5053097;28;20029;-64
2023/12/31 12:51:51;;;;;;;35.95;18.90;;;;;;;;;;5070916;28;20024;-62
2023/12/31 12:54:17;;;;;;;25.55;16.02;;;;;;;;;;5071147;28;20028;-65
2023/12/31 12:56:44;;;;;;;20.02;14.43;;;;;;;;;;5070957;28;20438;-64
2023/12/31 12:59:12;;;;;;;21.20;12.35;;;;;;;;;;5070925;28;20108;-64
2023/12/31 13:01:37;;;;;;;15.98;11.35;;;;;;;;;;5070911;28;20059;-65
2023/12/31 13:04:10;;;;;;;14.57;11.52;;;;;;;;;;5069922;28;20451;-64
2023/12/31 13:06:36;;;;;;;39.38;20.55;;;;;;;;;;5069915;28;20048;-64
2023/12/31 13:09:01;;;;;;;22.38;13.40;;;;;;;;;;5070528;28;20132;-63
2023/12/31 13:11:27;;;;;;;27.52;15.23;;;;;;;;;;5070108;28;20559;-64
2023/12/31 13:13:52;;;;;;;40.88;21.50;;;;;;;;;;5070542;28;20530;-64
2023/12/31 13:16:20;;;;;;;110.78;66.20;;;;;;;;;;5052344;28;20055;-67
2023/12/31 13:18:46;;;;;;;22.73;16.27;;;;;;;;;;5070664;28;20016;-66
2023/12/31 13:21:11;;;;;;;17.17;11.30;;;;;;;;;;5062702;28;20729;-73
2023/12/31 13:23:37;;;;;;;38.20;29.35;;;;;;;;;;5041095;28;20063;-75
2023/12/31 13:26:02;;;;;;;56.38;39.42;;;;;;;;;;5059180;28;20020;-73
2023/12/31 13:28:27;;;;;;;86.22;58.22;;;;;;;;;;5058095;28;20455;-65
2023/12/31 13:30:53;;;;;;;29.60;19.70;;;;;;;;;;5067401;28;20012;-66
2023/12/31 13:33:19;;;;;;;45.85;31.58;;;;;;;;;;5055526;28;20028;-67
2023/12/31 13:35:44;;;;;;;30.40;19.38;;;;;;;;;;5073564;28;20033;-67
2023/12/31 13:38:21;;;;;;;18.63;14.20;;;;;;;;;;5068706;28;20024;-67
2023/12/31 13:40:46;;;;;;;61.92;40.95;;;;;;;;;;5040457;28;20020;-70
2023/12/31 13:43:12;;;;;;;24.75;16.38;;;;;;;;;;5055896;28;20474;-72
2023/12/31 13:45:37;;;;;;;64.00;37.22;;;;;;;;;;5052952;28;20036;-67
2023/12/31 13:48:03;;;;;;;64.38;38.13;;;;;;;;;;5053023;28;20124;-65
2023/12/31 13:50:28;;;;;;;20.10;12.75;;;;;;;;;;5061182;28;20025;-75
2023/12/31 13:52:54;;;;;;;107.18;63.58;;;;;;;;;;5063130;28;20056;-67
2023/12/31 13:55:19;;;;;;;27.25;16.00;;;;;;;;;;5057342;28;20063;-67
2023/12/31 13:57:44;;;;;;;27.55;17.08;;;;;;;;;;5076321;28;20029;-67
2023/12/31 14:00:11;;;;;;;40.67;23.30;;;;;;;;;;5076238;28;20405;-66
2023/12/31 14:02:37;;;;;;;51.10;29.73;;;;;;;;;;5058548;28;20237;-66
2023/12/31 14:05:03;;;;;;;59.50;33.53;;;;;;;;;;5075996;28;20055;-66
2023/12/31 14:07:28;;;;;;;64.47;36.45;;;;;;;;;;5075800;28;20447;-66
2023/12/31 14:09:54;;;;;;;26.38;15.93;;;;;;;;;;5075734;28;20064;-66
2023/12/31 14:12:19;;;;;;;73.22;41.58;;;;;;;;;;5074049;28;20071;-74
2023/12/31 14:14:45;;;;;;;35.42;21.70;;;;;;;;;;5056525;28;20033;-74
2023/12/31 14:17:11;;;;;;;19.73;12.95;;;;;;;;;;5074858;28;20037;-74
2023/12/31 14:19:36;;;;;;;23.92;14.40;;;;;;;;;;5056887;28;20043;-74
2023/12/31 14:22:02;;;;;;;25.20;15.48;;;;;;;;;;5056038;28;20601;-75